createdAt,value
2022-12-15T00:01:47.182Z,98435.06
2022-12-15T00:04:33.116Z,98422.50
2022-12-15T00:07:18.805Z,98440.72
2022-12-15T00:10:04.814Z,98444.91
2022-12-15T00:12:50.416Z,98435.88
2022-12-15T00:15:36.247Z,98434.72
2022-12-15T00:18:25.595Z,98451.81
2022-12-15T00:21:15.879Z,98450.81
2022-12-15T00:24:01.604Z,98434.38
2022-12-15T00:26:47.214Z,98436.66
2022-12-15T00:29:33.016Z,98443.91
2022-12-15T00:32:18.445Z,98440.47
2022-12-15T00:35:04.185Z,98448.06
2022-12-15T00:37:49.560Z,98443.50
2022-12-15T00:40:17.078Z,98437.88
2022-12-15T00:42:44.331Z,98446.25
2022-12-15T00:45:14.721Z,98426.75
2022-12-15T00:47:41.839Z,98446.44
2022-12-15T00:50:27.345Z,98435.50
2022-12-15T00:53:13.191Z,98440.66
2022-12-15T00:55:59.053Z,98430.66
2022-12-15T00:58:44.587Z,98419.53
2022-12-15T01:01:30.359Z,98430.00
2022-12-15T01:04:16.413Z,98420.97
2022-12-15T01:07:02.759Z,98426.59
2022-12-15T01:09:48.132Z,98433.06
2022-12-15T01:12:33.926Z,98435.31
2022-12-15T01:15:20.419Z,98437.72
2022-12-15T01:18:09.595Z,98433.66
2022-12-15T01:20:36.595Z,98445.91
2022-12-15T01:23:05.249Z,98441.53
2022-12-15T01:25:33.865Z,98425.72
2022-12-15T01:28:01.096Z,98434.13
2022-12-15T01:30:28.371Z,98446.69
2022-12-15T01:32:55.480Z,98438.59
2022-12-15T01:35:23.159Z,98423.28
2022-12-15T01:37:50.502Z,98447.13
2022-12-15T01:40:38.348Z,98432.78
2022-12-15T01:43:13.517Z,98427.81
2022-12-15T01:46:08.598Z,98428.91
2022-12-15T01:48:38.305Z,98441.31
2022-12-15T01:51:31.891Z,98424.69
2022-12-15T01:57:38.810Z,98428.88
2022-12-15T02:00:16.591Z,98432.25
2022-12-15T02:02:52.962Z,98428.19
2022-12-15T02:05:27.591Z,98425.28
2022-12-15T02:07:55.662Z,98408.84
2022-12-15T02:10:34.191Z,98409.81
2022-12-15T02:13:34.313Z,98328.16
2022-12-15T02:16:40.157Z,98406.59
2022-12-15T02:19:13.314Z,98402.06
2022-12-15T02:21:49.551Z,98399.16
2022-12-15T02:24:27.227Z,98387.84
2022-12-15T02:27:46.153Z,98392.31
2022-12-15T02:30:41.286Z,98378.97
2022-12-15T02:33:25.462Z,98380.41
2022-12-15T02:36:12.034Z,98326.19
2022-12-15T02:38:43.358Z,98394.81
2022-12-15T02:41:28.598Z,98390.78
2022-12-15T02:43:55.774Z,98377.09
2022-12-15T02:46:52.532Z,98375.84
2022-12-15T02:49:40.773Z,98380.50
2022-12-15T02:52:50.834Z,98321.47
2022-12-15T02:55:50.985Z,98382.06
2022-12-15T02:58:54.324Z,98363.88
2022-12-15T03:01:37.272Z,98375.09
2022-12-15T03:04:10.868Z,98369.34
2022-12-15T03:06:39.208Z,98382.19
2022-12-15T03:09:15.890Z,98386.03
2022-12-15T03:11:42.899Z,98388.22
2022-12-15T03:14:09.897Z,98401.00
2022-12-15T03:16:36.994Z,98375.97
2022-12-15T03:19:07.111Z,98387.09
2022-12-15T03:21:34.247Z,98371.38
2022-12-15T03:24:01.410Z,98406.34
2022-12-15T03:26:28.730Z,98393.97
2022-12-15T03:28:55.843Z,98382.06
2022-12-15T03:31:22.873Z,98387.72
2022-12-15T03:33:50.099Z,98389.31
2022-12-15T03:36:17.014Z,98380.31
2022-12-15T03:38:44.286Z,98364.75
2022-12-15T03:41:11.298Z,98377.34
2022-12-15T03:43:38.634Z,98371.88
2022-12-15T03:46:05.868Z,98379.75
2022-12-15T03:48:32.969Z,98387.03
2022-12-15T03:51:00.137Z,98382.88
2022-12-15T03:53:27.401Z,98387.03
2022-12-15T03:55:55.127Z,98378.72
2022-12-15T03:58:22.650Z,98380.06
2022-12-15T04:00:49.714Z,98393.50
2022-12-15T04:03:16.961Z,98400.91
2022-12-15T04:05:44.175Z,98404.00
2022-12-15T04:08:11.775Z,98411.22
2022-12-15T04:10:38.913Z,98404.94
2022-12-15T04:13:11.283Z,98410.72
2022-12-15T04:15:40.219Z,98413.16
2022-12-15T04:18:13.045Z,98411.50
2022-12-15T04:20:40.738Z,98430.63
2022-12-15T04:23:08.182Z,98422.13
2022-12-15T04:25:54.566Z,98423.75
2022-12-15T04:28:40.653Z,98419.81
2022-12-15T04:31:33.822Z,98422.63
2022-12-15T04:34:49.722Z,98417.91
2022-12-15T04:37:35.834Z,98408.91
2022-12-15T04:40:21.524Z,98421.94
2022-12-15T04:43:07.259Z,98416.78
2022-12-15T04:45:52.807Z,98422.38
2022-12-15T04:48:38.363Z,98436.41
2022-12-15T04:51:24.186Z,98432.38
2022-12-15T04:54:10.477Z,98447.03
2022-12-15T04:56:56.124Z,98440.69
2022-12-15T04:59:41.395Z,98463.38
2022-12-15T05:02:27.684Z,98453.47
2022-12-15T05:05:13.605Z,98477.75
2022-12-15T05:07:59.562Z,98491.72
2022-12-15T05:10:44.931Z,98494.47
2022-12-15T05:13:30.624Z,98508.34
2022-12-15T05:16:16.592Z,98527.47
2022-12-15T05:19:02.435Z,98540.94
2022-12-15T05:21:48.499Z,98557.72
2022-12-15T05:24:34.791Z,98557.03
2022-12-15T05:27:20.689Z,98571.81
2022-12-15T05:30:06.641Z,98569.03
2022-12-15T05:32:33.951Z,98599.47
2022-12-15T05:35:01.893Z,98571.72
2022-12-15T05:37:29.137Z,98604.38
2022-12-15T05:39:56.570Z,98622.53
2022-12-15T05:42:23.890Z,98630.06
2022-12-15T05:44:58.903Z,98641.03
2022-12-15T05:47:26.930Z,98644.88
2022-12-15T05:49:54.052Z,98648.88
2022-12-15T05:52:21.975Z,98669.69
2022-12-15T05:54:49.102Z,98678.88
2022-12-15T05:57:16.097Z,98676.84
2022-12-15T05:59:43.330Z,98699.16
2022-12-15T06:02:10.460Z,98704.56
2022-12-15T06:04:37.682Z,98703.47
2022-12-15T06:07:04.860Z,98714.34
2022-12-15T06:09:32.159Z,98713.81
2022-12-15T06:11:59.930Z,98713.25
2022-12-15T06:14:27.023Z,98706.84
2022-12-15T06:16:54.530Z,98724.81
2022-12-15T06:19:23.443Z,98720.03
2022-12-15T06:22:00.525Z,98735.22
2022-12-15T06:24:27.648Z,98737.13
2022-12-15T06:26:54.960Z,98696.34
2022-12-15T06:29:22.637Z,98739.03
2022-12-15T06:31:49.920Z,98736.31
2022-12-15T06:34:18.053Z,98741.66
2022-12-15T06:36:45.489Z,98729.16
2022-12-15T06:39:15.435Z,98743.56
2022-12-15T06:41:43.544Z,98756.91
2022-12-15T06:44:15.802Z,98714.19
2022-12-15T06:46:48.049Z,98759.75
2022-12-15T06:49:16.122Z,98769.28
2022-12-15T06:51:53.005Z,98754.94
2022-12-15T06:54:21.330Z,98766.81
2022-12-15T06:56:50.080Z,98764.13
2022-12-15T06:59:18.481Z,98770.88
2022-12-15T07:01:45.805Z,98778.66
2022-12-15T07:04:13.724Z,98776.50
2022-12-15T07:06:48.642Z,98788.47
2022-12-15T07:09:17.100Z,98789.22
2022-12-15T07:11:46.783Z,98805.84
2022-12-15T07:14:14.145Z,98814.19
2022-12-15T07:16:41.893Z,98815.56
2022-12-15T07:19:13.577Z,98809.53
2022-12-15T07:21:41.610Z,98826.38
2022-12-15T07:24:13.496Z,98831.78
2022-12-15T07:26:51.193Z,98832.25
2022-12-15T07:29:23.419Z,98829.03
2022-12-15T07:31:53.891Z,98847.78
2022-12-15T07:34:21.822Z,98849.63
2022-12-15T07:36:53.008Z,98853.66
2022-12-15T07:39:20.261Z,98859.78
2022-12-15T07:41:47.652Z,98862.44
2022-12-15T07:44:16.813Z,98854.28
2022-12-15T07:46:46.962Z,98856.06
2022-12-15T07:49:14.768Z,98863.47
2022-12-15T07:51:42.080Z,98874.38
2022-12-15T07:54:11.961Z,98881.59
2022-12-15T07:56:40.338Z,98875.81
2022-12-15T07:59:10.826Z,98878.31
2022-12-15T08:01:38.850Z,98888.53
2022-12-15T08:04:10.604Z,98894.72
2022-12-15T08:06:43.419Z,98901.81
2022-12-15T08:09:11.203Z,98898.47
2022-12-15T08:11:41.570Z,98905.25
2022-12-15T08:14:15.097Z,98912.25
2022-12-15T08:16:48.705Z,98923.09
2022-12-15T08:19:19.191Z,98924.50
2022-12-15T08:21:49.625Z,98913.25
2022-12-15T08:24:18.147Z,98915.00
2022-12-15T08:26:50.319Z,98942.00
2022-12-15T08:29:49.637Z,98950.22
2022-12-15T08:32:06.414Z,98958.38
2022-12-15T08:34:34.048Z,98948.66
2022-12-15T08:37:01.060Z,98952.94
2022-12-15T08:39:29.081Z,98936.72
2022-12-15T08:41:56.575Z,98953.97
2022-12-15T08:44:27.420Z,98940.41
2022-12-15T08:46:57.595Z,98938.72
2022-12-15T08:49:27.644Z,98940.13
2022-12-15T08:51:54.962Z,98930.03
2022-12-15T08:54:23.156Z,98929.19
2022-12-15T08:56:51.009Z,98925.13
2022-12-15T08:59:18.232Z,98929.94
2022-12-15T09:01:46.049Z,98930.16
2022-12-15T09:04:16.548Z,98932.72
2022-12-15T09:06:44.490Z,98931.38
2022-12-15T09:09:17.783Z,98918.75
2022-12-15T09:11:45.669Z,98915.44
2022-12-15T09:14:13.126Z,98922.47
2022-12-15T09:16:41.176Z,98913.25
2022-12-15T09:19:10.416Z,98914.16
2022-12-15T09:21:43.151Z,98919.09
2022-12-15T09:24:19.788Z,98916.03
2022-12-15T09:26:52.686Z,98900.81
2022-12-15T09:29:19.897Z,98901.34
2022-12-15T09:31:47.449Z,98900.25
2022-12-15T09:34:16.086Z,98888.91
2022-12-15T09:36:43.456Z,98876.13
2022-12-15T09:39:12.432Z,98903.03
2022-12-15T09:41:41.174Z,98913.50
2022-12-15T09:44:15.094Z,98913.78
2022-12-15T09:46:53.717Z,98910.81
2022-12-15T09:49:30.268Z,98910.44
2022-12-15T09:52:13.029Z,98901.00
2022-12-15T09:54:44.216Z,98906.28
2022-12-15T09:57:31.678Z,98904.00
2022-12-15T10:00:07.703Z,98903.03
2022-12-15T10:03:05.864Z,98897.69
2022-12-15T10:06:33.061Z,98897.94
2022-12-15T10:09:09.662Z,98901.78
2022-12-15T10:11:57.752Z,98893.09
2022-12-15T10:14:33.081Z,98907.63
2022-12-15T10:17:22.321Z,98910.75
2022-12-15T10:19:58.440Z,98914.59
2022-12-15T10:22:34.226Z,98915.34
2022-12-15T10:25:30.506Z,98922.63
2022-12-15T10:28:08.827Z,98917.34
2022-12-15T10:30:49.879Z,98932.34
2022-12-15T10:33:20.944Z,98926.72
2022-12-15T10:35:49.063Z,98928.34
2022-12-15T10:38:38.318Z,98941.28
2022-12-15T10:41:15.293Z,98942.69
2022-12-15T10:43:44.760Z,98938.44
2022-12-15T10:46:19.796Z,98939.56
2022-12-15T10:48:59.582Z,98926.19
2022-12-15T10:51:31.838Z,98940.00
2022-12-15T10:54:01.859Z,98941.16
2022-12-15T10:56:33.750Z,98941.91
2022-12-15T10:59:22.984Z,98926.59
2022-12-15T11:01:51.482Z,98906.31
2022-12-15T11:04:26.464Z,98920.50
2022-12-15T11:07:01.664Z,98916.28
2022-12-15T11:09:37.768Z,98923.66
2022-12-15T11:12:38.568Z,98932.88
2022-12-15T11:15:24.115Z,98930.84
2022-12-15T11:18:04.244Z,98927.31
2022-12-15T11:20:36.427Z,98941.63
2022-12-15T11:23:30.910Z,98941.03
2022-12-15T11:26:07.262Z,98936.84
2022-12-15T11:28:52.734Z,98931.66
2022-12-15T11:31:34.859Z,98926.84
2022-12-15T11:34:03.327Z,98929.91
2022-12-15T11:36:36.206Z,98928.03
2022-12-15T11:39:14.150Z,98935.44
2022-12-15T11:41:51.738Z,98919.72
2022-12-15T11:44:27.507Z,98936.56
2022-12-15T11:47:31.677Z,98939.28
2022-12-15T11:50:22.656Z,98935.00
2022-12-15T11:53:32.248Z,98941.81
2022-12-15T11:56:08.880Z,98949.41
2022-12-15T11:59:10.221Z,98865.69
2022-12-15T12:01:54.024Z,98953.38
2022-12-15T12:04:44.887Z,98944.22
2022-12-15T12:07:34.583Z,98959.13
2022-12-15T12:10:22.515Z,98958.44
2022-12-15T12:13:21.789Z,98960.56
2022-12-15T12:15:55.809Z,98965.94
2022-12-15T12:18:36.786Z,98960.56
2022-12-15T12:21:09.163Z,98975.84
2022-12-15T12:23:49.091Z,98958.81
2022-12-15T12:26:32.367Z,98965.22
2022-12-15T12:29:06.488Z,98964.69
2022-12-15T12:32:04.069Z,98976.00
2022-12-15T12:34:51.007Z,98969.78
2022-12-15T12:37:24.418Z,98990.91
2022-12-15T12:39:54.192Z,98975.66
2022-12-15T12:42:59.252Z,98981.25
2022-12-15T12:45:32.632Z,98987.81
2022-12-15T12:48:40.060Z,98995.41
2022-12-15T12:51:19.679Z,98995.69
2022-12-15T12:53:48.685Z,99000.31
2022-12-15T12:56:48.678Z,99004.44
2022-12-15T12:59:29.669Z,98995.03
2022-12-15T13:01:58.457Z,98998.91
2022-12-15T13:04:34.295Z,99005.75
2022-12-15T13:07:08.889Z,99001.63
2022-12-15T13:09:47.781Z,99010.78
2022-12-15T13:12:54.782Z,99018.03
2022-12-15T13:15:28.948Z,99024.66
2022-12-15T13:18:17.777Z,99034.88
2022-12-15T13:20:50.492Z,99037.47
2022-12-15T13:23:40.273Z,99035.22
2022-12-15T13:26:07.469Z,99035.94
2022-12-15T13:28:40.421Z,99042.63
2022-12-15T13:31:18.487Z,99044.53
2022-12-15T13:33:51.654Z,99056.78
2022-12-15T13:36:39.879Z,99071.47
2022-12-15T13:39:13.163Z,99058.69
2022-12-15T13:42:15.415Z,99072.69
2022-12-15T13:45:12.341Z,99069.81
2022-12-15T13:47:40.652Z,99069.97
2022-12-15T13:50:15.687Z,99071.69
2022-12-15T13:53:18.288Z,99077.06
2022-12-15T13:55:53.712Z,99084.03
2022-12-15T13:58:23.616Z,99089.28
2022-12-15T14:00:56.400Z,99092.41
2022-12-15T14:03:24.786Z,99088.19
2022-12-15T14:06:00.388Z,99079.03
2022-12-15T14:08:29.546Z,99068.97
2022-12-15T14:11:06.997Z,99070.59
2022-12-15T14:13:41.594Z,99071.34
2022-12-15T14:16:18.073Z,99077.13
2022-12-15T14:18:54.796Z,99083.47
2022-12-15T14:21:30.903Z,99096.09
2022-12-15T14:24:37.611Z,99078.03
2022-12-15T14:26:46.201Z,99086.31
2022-12-15T14:29:24.338Z,99107.34
2022-12-15T14:31:55.531Z,99094.38
2022-12-15T14:34:36.904Z,99106.34
2022-12-15T14:37:10.854Z,99107.34
2022-12-15T14:39:46.855Z,99121.34
2022-12-15T14:42:26.661Z,99125.22
2022-12-15T14:44:57.796Z,99111.91
2022-12-15T14:47:27.200Z,99116.59
2022-12-15T14:49:57.551Z,99125.13
2022-12-15T14:52:42.964Z,99123.25
2022-12-15T14:55:42.641Z,99126.00
2022-12-15T14:58:35.624Z,99126.56
2022-12-15T15:01:06.982Z,99133.69
2022-12-15T15:03:39.475Z,99126.38
2022-12-15T15:06:19.523Z,99104.06
2022-12-15T15:08:52.732Z,99118.50
2022-12-15T15:11:28.839Z,99130.56
2022-12-15T15:14:13.802Z,99124.13
2022-12-15T15:16:42.099Z,99146.50
2022-12-15T15:19:40.045Z,99148.22
2022-12-15T15:22:41.491Z,99150.94
2022-12-15T15:25:27.391Z,99151.53
2022-12-15T15:28:14.308Z,99141.50
2022-12-15T15:31:05.668Z,99146.69
2022-12-15T15:33:32.755Z,99155.44
2022-12-15T15:36:02.479Z,99129.66
2022-12-15T15:38:35.416Z,99153.63
2022-12-15T15:41:31.638Z,99170.00
2022-12-15T15:44:00.927Z,99170.84
2022-12-15T15:46:34.795Z,99152.88
2022-12-15T15:49:13.333Z,99164.84
2022-12-15T15:51:45.122Z,99163.78
2022-12-15T15:54:15.582Z,99149.66
2022-12-15T15:56:45.662Z,99139.91
2022-12-15T15:59:16.564Z,99124.19
2022-12-15T16:01:45.411Z,99162.50
2022-12-15T16:04:15.705Z,99158.75
2022-12-15T16:06:47.321Z,99170.50
2022-12-15T16:09:18.475Z,99128.34
2022-12-15T16:11:46.751Z,99176.72
2022-12-15T16:14:15.932Z,99181.38
2022-12-15T16:17:18.353Z,99178.66
2022-12-15T16:19:45.559Z,99181.69
2022-12-15T16:22:19.200Z,99174.63
2022-12-15T16:24:47.046Z,99174.63
2022-12-15T16:27:16.167Z,99182.50
2022-12-15T16:29:44.913Z,99172.19
2022-12-15T16:32:13.370Z,99185.81
2022-12-15T16:34:49.881Z,99176.56
2022-12-15T16:37:27.775Z,99183.13
2022-12-15T16:39:55.516Z,99198.34
2022-12-15T16:42:23.309Z,99196.19
2022-12-15T16:44:51.662Z,99191.84
2022-12-15T16:47:19.125Z,99198.38
2022-12-15T16:49:46.202Z,99189.13
2022-12-15T16:52:21.262Z,99202.19
2022-12-15T16:54:50.701Z,99208.44
2022-12-15T16:57:18.636Z,99188.06
2022-12-15T16:59:45.783Z,99192.44
2022-12-15T17:02:30.287Z,99219.09
2022-12-15T17:04:57.610Z,99196.78
2022-12-15T17:07:28.304Z,99210.38
2022-12-15T17:09:58.371Z,99194.06
2022-12-15T17:12:25.669Z,99209.28
2022-12-15T17:14:53.311Z,99206.56
2022-12-15T17:17:23.534Z,99206.56
2022-12-15T17:20:27.240Z,99206.84
2022-12-15T17:22:42.517Z,99212.00
2022-12-15T17:26:09.221Z,99222.31
2022-12-15T17:28:27.022Z,99227.75
2022-12-15T17:30:54.134Z,99233.75
2022-12-15T17:33:34.745Z,99242.72
2022-12-15T17:36:10.573Z,99244.06
2022-12-15T17:38:40.704Z,99238.34
2022-12-15T17:41:28.752Z,99221.69
2022-12-15T17:44:24.059Z,99236.41
2022-12-15T17:46:50.598Z,99240.75
2022-12-15T17:49:18.971Z,99244.56
2022-12-15T17:51:46.904Z,99242.38
2022-12-15T17:54:15.899Z,99252.16
2022-12-15T17:56:44.961Z,99252.69
2022-12-15T17:59:23.211Z,99248.88
2022-12-15T18:01:53.927Z,99258.69
2022-12-15T18:04:21.137Z,99222.47
2022-12-15T18:06:48.239Z,99260.81
2022-12-15T18:09:19.814Z,99262.97
2022-12-15T18:11:49.985Z,99268.97
2022-12-15T18:14:19.942Z,99252.06
2022-12-15T18:16:47.344Z,99264.06
2022-12-15T18:19:14.340Z,99270.03
2022-12-15T18:21:41.671Z,99264.84
2022-12-15T18:24:17.590Z,99280.31
2022-12-15T18:26:47.429Z,99263.94
2022-12-15T18:29:18.075Z,99285.97
2022-12-15T18:31:49.473Z,99282.97
2022-12-15T18:34:21.446Z,99274.78
2022-12-15T18:36:49.072Z,99282.69
2022-12-15T18:39:24.072Z,99291.13
2022-12-15T18:41:54.551Z,99288.59
2022-12-15T18:44:27.610Z,99291.03
2022-12-15T18:46:55.471Z,99290.75
2022-12-15T18:49:26.179Z,99290.44
2022-12-15T18:51:54.166Z,99290.66
2022-12-15T18:54:24.248Z,99299.03
2022-12-15T18:56:51.547Z,99280.56
2022-12-15T18:59:19.783Z,99259.84
2022-12-15T19:01:48.856Z,99285.44
2022-12-15T19:04:16.792Z,99288.69
2022-12-15T19:06:44.865Z,99291.16
2022-12-15T19:09:20.420Z,99285.16
2022-12-15T19:12:07.493Z,99296.88
2022-12-15T19:14:43.458Z,99286.53
2022-12-15T19:17:30.474Z,99301.63
2022-12-15T19:20:16.325Z,99302.66
2022-12-15T19:22:44.543Z,99308.09
2022-12-15T19:25:25.996Z,99306.16
2022-12-15T19:28:00.383Z,99298.88
2022-12-15T19:30:31.492Z,99230.13
2022-12-15T19:32:58.410Z,99302.94
2022-12-15T19:35:27.554Z,99310.75
2022-12-15T19:37:58.030Z,99307.50
2022-12-15T19:40:32.688Z,99316.44
2022-12-15T19:43:04.749Z,99308.63
2022-12-15T19:45:33.376Z,99316.25
2022-12-15T19:48:23.675Z,99319.25
2022-12-15T19:50:55.207Z,99316.56
2022-12-15T19:53:31.440Z,99315.50
2022-12-15T19:56:02.080Z,99317.91
2022-12-15T19:59:00.907Z,99319.22
2022-12-15T20:01:28.236Z,99323.50
2022-12-15T20:03:55.394Z,99322.75
2022-12-15T20:06:27.589Z,99319.47
2022-12-15T20:08:56.452Z,99323.09
2022-12-15T20:11:27.898Z,99314.69
2022-12-15T20:13:57.216Z,99313.03
2022-12-15T20:16:25.860Z,99307.06
2022-12-15T20:18:55.306Z,99279.88
2022-12-15T20:21:27.578Z,99313.69
2022-12-15T20:24:02.901Z,99273.00
2022-12-15T20:26:31.354Z,99295.69
2022-12-15T20:28:58.580Z,99318.03
2022-12-15T20:31:26.058Z,99312.34
2022-12-15T20:33:53.987Z,99303.41
2022-12-15T20:36:26.920Z,99310.19
2022-12-15T20:38:55.373Z,99309.59
2022-12-15T20:41:25.323Z,99311.22
2022-12-15T20:43:56.524Z,99310.38
2022-12-15T20:46:33.521Z,99303.88
2022-12-15T20:49:04.636Z,99308.19
2022-12-15T20:51:33.264Z,99312.50
2022-12-15T20:54:02.901Z,99321.53
2022-12-15T20:56:30.697Z,99335.31
2022-12-15T20:58:58.617Z,99299.91
2022-12-15T21:01:35.144Z,99301.56
2022-12-15T21:04:18.660Z,99320.38
2022-12-15T21:06:52.831Z,99320.81
2022-12-15T21:09:31.787Z,99323.25
2022-12-15T21:11:59.652Z,99309.72
2022-12-15T21:14:29.176Z,99317.31
2022-12-15T21:16:56.572Z,99317.88
2022-12-15T21:19:23.870Z,99305.00
2022-12-15T21:21:55.650Z,99318.31
2022-12-15T21:24:26.202Z,99315.28
2022-12-15T21:26:55.413Z,99320.41
2022-12-15T21:29:24.821Z,99320.41
2022-12-15T21:34:56.488Z,99322.03
2022-12-15T21:37:31.107Z,99323.16
2022-12-15T21:40:00.539Z,99317.13
2022-12-15T21:42:27.995Z,99310.88
2022-12-15T21:44:54.975Z,99316.38
2022-12-15T21:47:26.462Z,99315.03
2022-12-15T21:49:58.380Z,99301.88
2022-12-15T21:52:29.113Z,99309.31
2022-12-15T21:54:59.849Z,99314.97
2022-12-15T21:57:30.899Z,99298.31
2022-12-15T21:59:57.775Z,99306.03
2022-12-15T22:02:33.949Z,99311.78
2022-12-15T22:05:49.200Z,99309.50
2022-12-15T22:08:49.828Z,99312.31
2022-12-15T22:11:40.121Z,99303.56
2022-12-15T22:14:39.737Z,99298.41
2022-12-15T22:17:27.233Z,99298.00
2022-12-15T22:20:27.657Z,99300.50
2022-12-15T22:23:24.413Z,99299.94
2022-12-15T22:25:56.054Z,99305.97
2022-12-15T22:28:30.554Z,99299.19
2022-12-15T22:31:14.320Z,99292.28
2022-12-15T22:33:46.660Z,99295.66
2022-12-15T22:36:45.518Z,99292.13
2022-12-15T22:39:30.033Z,99294.22
2022-12-15T22:42:02.137Z,99287.97
2022-12-15T22:44:36.359Z,99293.69
2022-12-15T22:47:04.764Z,99282.44
2022-12-15T22:49:37.713Z,99303.00
2022-12-15T22:52:17.432Z,99291.28
2022-12-15T22:54:45.929Z,99280.16
2022-12-15T22:57:44.218Z,99277.13
2022-12-15T23:00:15.819Z,99283.38
2022-12-15T23:05:30.262Z,99287.09
2022-12-15T23:08:00.762Z,99287.06
2022-12-15T23:10:46.959Z,99268.63
2022-12-15T23:13:14.544Z,99270.22
2022-12-15T23:16:00.052Z,99255.06
2022-12-15T23:18:27.280Z,99246.94
2022-12-15T23:20:54.400Z,99238.81
2022-12-15T23:23:28.123Z,99246.94
2022-12-15T23:26:20.749Z,99230.31
2022-12-15T23:29:21.338Z,99240.94
2022-12-15T23:31:54.780Z,99249.09
2022-12-15T23:34:21.814Z,99239.31
2022-12-15T23:36:48.719Z,99237.69
2022-12-15T23:39:15.814Z,99221.63
2022-12-15T23:41:42.737Z,99222.75
2022-12-15T23:44:17.472Z,99236.16
2022-12-15T23:46:44.602Z,99230.16
2022-12-15T23:49:13.003Z,99240.03
2022-12-15T23:51:39.864Z,99230.84
2022-12-15T23:54:07.250Z,99235.19
2022-12-15T23:56:34.121Z,99232.19
2022-12-15T23:59:01.295Z,99240.06
